createdAt,value
2023-02-11T00:00:29.253Z,101779.20
2023-02-11T00:03:25.517Z,101768.80
2023-02-11T00:06:09.352Z,101763.80
2023-02-11T00:08:43.145Z,101755.00
2023-02-11T00:11:20.196Z,101753.20
2023-02-11T00:13:53.585Z,101754.60
2023-02-11T00:16:27.062Z,101745.80
2023-02-11T00:19:02.500Z,101746.20
2023-02-11T00:21:35.887Z,101742.40
2023-02-11T00:24:09.852Z,101739.60
2023-02-11T00:26:42.982Z,101738.60
2023-02-11T00:29:16.275Z,101733.00
2023-02-11T00:31:49.620Z,101737.00
2023-02-11T00:34:22.769Z,101728.20
2023-02-11T00:36:55.799Z,101734.40
2023-02-11T00:39:29.072Z,101728.20
2023-02-11T00:42:02.241Z,101727.40
2023-02-11T00:44:35.403Z,101729.20
2023-02-11T00:47:08.573Z,101727.80
2023-02-11T00:49:42.654Z,101737.80
2023-02-11T00:52:15.684Z,101730.60
2023-02-11T00:54:48.821Z,101726.00
2023-02-11T00:57:24.226Z,101716.40
2023-02-11T00:59:57.448Z,101715.00
2023-02-11T01:02:30.651Z,101708.80
2023-02-11T01:05:04.343Z,101702.00
2023-02-11T01:07:38.820Z,101703.20
2023-02-11T01:10:12.575Z,101703.80
2023-02-11T01:12:45.826Z,101699.60
2023-02-11T01:15:21.723Z,101701.40
2023-02-11T01:17:54.920Z,101689.20
2023-02-11T01:20:30.686Z,101683.20
2023-02-11T01:23:03.818Z,101674.40
2023-02-11T01:25:36.872Z,101671.80
2023-02-11T01:28:13.943Z,101673.80
2023-02-11T01:30:47.365Z,101662.60
2023-02-11T01:33:21.000Z,101665.20
2023-02-11T01:35:55.115Z,101662.60
2023-02-11T01:38:29.723Z,101647.20
2023-02-11T01:41:05.415Z,101651.40
2023-02-11T01:43:42.698Z,101647.00
2023-02-11T01:46:38.144Z,101640.00
2023-02-11T01:49:16.173Z,101635.20
2023-02-11T01:51:55.130Z,101625.00
2023-02-11T01:54:49.298Z,101623.40
2023-02-11T01:57:28.433Z,101618.40
2023-02-11T02:00:09.744Z,101611.00
2023-02-11T02:02:57.805Z,101609.40
2023-02-11T02:05:38.462Z,101617.80
2023-02-11T02:08:13.447Z,101610.60
2023-02-11T02:10:54.046Z,101597.40
2023-02-11T02:13:25.677Z,101595.40
2023-02-11T02:16:01.760Z,101589.80
2023-02-11T02:18:49.084Z,101595.40
2023-02-11T02:22:18.676Z,101583.20
2023-02-11T02:25:30.967Z,101571.60
2023-02-11T02:28:18.428Z,101563.20
2023-02-11T02:31:11.623Z,101551.40
2023-02-11T02:33:56.968Z,101556.40
2023-02-11T02:36:43.837Z,101549.40
2023-02-11T02:39:23.757Z,101545.20
2023-02-11T02:41:57.542Z,101542.60
2023-02-11T02:44:31.479Z,101527.60
2023-02-11T02:47:04.630Z,101528.60
2023-02-11T02:49:37.696Z,101531.80
2023-02-11T02:52:24.817Z,101519.00
2023-02-11T02:55:13.677Z,101513.60
2023-02-11T02:58:14.749Z,101508.40
2023-02-11T03:00:56.114Z,101506.20
2023-02-11T03:03:42.787Z,101500.60
2023-02-11T03:06:24.110Z,101499.40
2023-02-11T03:09:02.398Z,101494.80
2023-02-11T03:38:46.940Z,101498.00
2023-02-11T03:41:37.226Z,101502.40
2023-02-11T03:44:14.414Z,101500.20
2023-02-11T03:46:52.216Z,101510.80
2023-02-11T03:49:28.769Z,101507.80
2023-02-11T03:52:06.160Z,101501.40
2023-02-11T03:54:41.672Z,101489.80
2023-02-11T04:05:04.081Z,101477.00
2023-02-11T04:07:37.512Z,101475.20
2023-02-11T04:10:12.514Z,101463.40
2023-02-11T04:12:46.033Z,101466.00
2023-02-11T04:15:19.958Z,101455.60
2023-02-11T04:17:53.809Z,101450.00
2023-02-11T04:20:27.328Z,101448.40
2023-02-11T04:23:00.546Z,101443.80
2023-02-11T04:25:33.701Z,101437.80
2023-02-11T04:28:07.165Z,101431.80
2023-02-11T04:30:40.500Z,101428.20
2023-02-11T04:33:13.849Z,101420.80
2023-02-11T04:35:46.932Z,101411.60
2023-02-11T04:38:20.275Z,101409.40
2023-02-11T04:40:53.562Z,101409.20
2023-02-11T04:43:26.706Z,101416.40
2023-02-11T04:46:02.625Z,101416.60
2023-02-11T04:48:36.045Z,101425.00
2023-02-11T04:51:09.445Z,101424.60
2023-02-11T04:53:42.944Z,101429.20
2023-02-11T04:56:16.085Z,101426.00
2023-02-11T04:58:49.191Z,101420.20
2023-02-11T05:01:22.319Z,101409.00
2023-02-11T05:03:55.368Z,101408.20
2023-02-11T05:06:28.562Z,101401.00
2023-02-11T05:09:01.546Z,101400.60
2023-02-11T05:11:34.690Z,101388.20
2023-02-11T05:14:08.026Z,101382.20
2023-02-11T05:16:41.269Z,101371.20
2023-02-11T05:19:14.753Z,101369.20
2023-02-11T05:22:01.796Z,101373.40
2023-02-11T05:24:36.656Z,101369.00
2023-02-11T05:27:09.848Z,101360.60
2023-02-11T05:29:43.181Z,101357.00
2023-02-11T05:32:17.856Z,101360.60
2023-02-11T05:34:51.128Z,101357.00
2023-02-11T05:37:24.363Z,101357.00
2023-02-11T05:39:57.512Z,101364.60
2023-02-11T05:42:30.696Z,101370.00
2023-02-11T05:45:03.910Z,101361.60
2023-02-11T05:47:37.094Z,101366.40
2023-02-11T05:50:11.293Z,101369.40
2023-02-11T05:52:44.308Z,101364.60
2023-02-11T05:55:17.536Z,101359.20
2023-02-11T05:57:50.613Z,101360.60
2023-02-11T06:00:24.167Z,101361.80
2023-02-11T06:02:57.362Z,101358.80
2023-02-11T06:05:30.471Z,101359.20
2023-02-11T06:08:03.600Z,101362.60
2023-02-11T06:10:37.341Z,101363.20
2023-02-11T06:13:10.344Z,101356.20
2023-02-11T06:15:43.453Z,101351.00
2023-02-11T06:18:16.899Z,101354.40
2023-02-11T06:20:50.210Z,101352.60
2023-02-11T06:23:23.432Z,101354.20
2023-02-11T06:25:56.728Z,101364.00
2023-02-11T06:28:31.415Z,101361.20
2023-02-11T06:31:09.996Z,101360.80
2023-02-11T06:33:43.227Z,101348.60
2023-02-11T06:36:22.025Z,101341.00
2023-02-11T06:38:55.566Z,101348.80
2023-02-11T06:41:28.607Z,101349.20
2023-02-11T06:44:01.742Z,101350.40
2023-02-11T06:46:34.797Z,101345.80
2023-02-11T06:49:07.991Z,101347.60
2023-02-11T06:51:41.051Z,101346.20
2023-02-11T06:54:14.458Z,101350.00
2023-02-11T06:56:47.501Z,101344.80
2023-02-11T06:59:22.741Z,101343.60
2023-02-11T07:01:55.859Z,101350.00
2023-02-11T07:04:29.016Z,101353.80
2023-02-11T07:07:02.019Z,101342.20
2023-02-11T07:09:35.053Z,101343.40
2023-02-11T07:12:10.538Z,101333.60
2023-02-11T07:14:44.193Z,101324.20
2023-02-11T07:17:17.283Z,101320.00
2023-02-11T07:19:50.626Z,101310.80
2023-02-11T07:22:23.946Z,101311.80
2023-02-11T07:24:57.062Z,101318.00
2023-02-11T07:27:30.143Z,101331.00
2023-02-11T07:30:05.452Z,101332.80
2023-02-11T07:32:40.008Z,101328.60
2023-02-11T07:35:13.209Z,101326.60
2023-02-11T07:37:46.244Z,101315.00
2023-02-11T07:40:19.846Z,101314.80
2023-02-11T07:42:52.839Z,101325.20
2023-02-11T07:45:26.341Z,101321.00
2023-02-11T07:47:59.338Z,101328.60
2023-02-11T07:50:32.641Z,101316.80
2023-02-11T07:53:05.738Z,101314.20
2023-02-11T07:55:39.328Z,101314.80
2023-02-11T07:58:12.529Z,101315.60
2023-02-11T08:00:46.351Z,101314.40
2023-02-11T08:03:19.382Z,101321.00
2023-02-11T08:05:52.824Z,101324.00
2023-02-11T08:08:27.412Z,101333.40
2023-02-11T08:11:06.486Z,101329.60
2023-02-11T08:13:40.208Z,101332.40
2023-02-11T08:16:21.230Z,101326.00
2023-02-11T08:18:55.478Z,101335.00
2023-02-11T08:21:29.525Z,101325.80
2023-02-11T08:24:04.450Z,101318.80
2023-02-11T08:26:37.872Z,101319.80
2023-02-11T08:29:15.270Z,101324.40
2023-02-11T08:31:50.462Z,101333.80
2023-02-11T08:34:23.622Z,101346.60
2023-02-11T08:36:56.753Z,101329.20
2023-02-11T08:39:30.084Z,101325.00
2023-02-11T08:42:03.149Z,101321.40
2023-02-11T08:44:36.157Z,101322.40
2023-02-11T08:47:09.297Z,101322.20
2023-02-11T08:49:42.700Z,101313.20
2023-02-11T08:52:15.860Z,101311.60
2023-02-11T08:54:48.890Z,101311.80
2023-02-11T08:57:21.866Z,101312.80
2023-02-11T08:59:55.621Z,101313.00
2023-02-11T09:02:29.014Z,101311.00
2023-02-11T09:05:02.260Z,101309.80
2023-02-11T09:07:35.687Z,101304.20
2023-02-11T09:10:11.244Z,101290.00
2023-02-11T09:12:44.379Z,101292.60
2023-02-11T09:15:17.419Z,101289.40
2023-02-11T09:17:50.597Z,101286.40
2023-02-11T09:20:23.974Z,101277.60
2023-02-11T09:22:58.369Z,101274.80
2023-02-11T09:25:31.477Z,101276.80
2023-02-11T09:28:04.650Z,101263.80
2023-02-11T09:30:38.254Z,101269.00
2023-02-11T09:33:11.397Z,101272.60
2023-02-11T09:35:44.468Z,101254.00
2023-02-11T09:38:17.619Z,101262.00
2023-02-11T09:40:51.018Z,101249.20
2023-02-11T09:43:28.495Z,101256.60
2023-02-11T09:46:02.127Z,101244.60
2023-02-11T09:48:42.818Z,101238.40
2023-02-11T09:51:20.619Z,101243.00
2023-02-11T09:54:00.284Z,101236.80
2023-02-11T09:56:34.411Z,101235.40
2023-02-11T09:59:11.553Z,101243.80
2023-02-11T10:01:49.519Z,101250.00
2023-02-11T10:04:45.130Z,101257.80
2023-02-11T10:07:28.000Z,101261.00
2023-02-11T10:10:19.827Z,101250.20
2023-02-11T10:13:14.498Z,101237.80
2023-02-11T10:15:57.499Z,101228.60
2023-02-11T10:19:05.465Z,101225.40
2023-02-11T10:21:51.745Z,101228.00
2023-02-11T10:24:25.569Z,101228.20
2023-02-11T10:26:59.413Z,101214.00
2023-02-11T10:29:42.268Z,101202.80
2023-02-11T10:32:29.343Z,101203.40
2023-02-11T10:35:11.039Z,101213.60
2023-02-11T10:37:44.688Z,101212.80
2023-02-11T10:40:21.232Z,101210.40
2023-02-11T10:42:57.435Z,101217.80
2023-02-11T10:45:37.416Z,101211.20
2023-02-11T10:48:45.968Z,101206.40
2023-02-11T10:51:23.875Z,101207.20
2023-02-11T10:54:21.481Z,101206.80
2023-02-11T10:57:02.045Z,101210.60
2023-02-11T10:59:34.914Z,101198.80
2023-02-11T11:02:24.767Z,101197.40
2023-02-11T11:05:00.631Z,101209.00
2023-02-11T11:07:35.335Z,101209.20
2023-02-11T11:10:30.530Z,101203.00
2023-02-11T11:13:03.636Z,101212.60
2023-02-11T11:15:37.173Z,101221.20
2023-02-11T11:18:23.574Z,101214.00
2023-02-11T11:21:04.567Z,101207.00
2023-02-11T11:23:40.340Z,101196.40
2023-02-11T11:26:16.790Z,101195.00
2023-02-11T11:28:59.296Z,101198.00
2023-02-11T11:31:47.508Z,101200.80
2023-02-11T11:34:29.716Z,101191.40
2023-02-11T11:37:12.337Z,101191.40
2023-02-11T11:39:50.105Z,101192.20
2023-02-11T11:42:33.048Z,101186.20
2023-02-11T11:45:26.023Z,101184.20
2023-02-11T11:48:04.668Z,101181.40
2023-02-11T11:50:43.454Z,101195.80
2023-02-11T11:53:22.251Z,101203.60
2023-02-11T11:56:01.293Z,101191.80
2023-02-11T11:58:35.488Z,101188.40
2023-02-11T12:01:24.262Z,101193.40
2023-02-11T12:04:37.009Z,101189.00
2023-02-11T12:07:26.110Z,101178.80
2023-02-11T12:10:20.690Z,101165.40
2023-02-11T12:13:03.157Z,101167.00
2023-02-11T12:15:46.975Z,101163.00
2023-02-11T12:18:45.588Z,101167.80
2023-02-11T12:21:36.692Z,101156.60
2023-02-11T12:24:29.822Z,101148.00
2023-02-11T12:27:09.905Z,101161.40
2023-02-11T12:29:56.879Z,101157.00
2023-02-11T12:32:38.632Z,101150.60
2023-02-11T12:35:48.847Z,101155.40
2023-02-11T12:38:50.747Z,101158.40
2023-02-11T12:41:59.274Z,101137.80
2023-02-11T12:44:46.818Z,101129.80
2023-02-11T12:47:30.204Z,101125.20
2023-02-11T12:50:14.566Z,101124.60
2023-02-11T12:53:19.642Z,101130.00
2023-02-11T12:55:59.248Z,101125.20
2023-02-11T12:58:44.991Z,101136.00
2023-02-11T13:01:25.098Z,101139.60
2023-02-11T13:04:08.702Z,101130.00
2023-02-11T13:06:47.029Z,101138.20
2023-02-11T13:09:25.969Z,101143.00
2023-02-11T13:12:21.972Z,101128.60
2023-02-11T13:15:02.209Z,101123.80
2023-02-11T13:17:40.109Z,101124.40
2023-02-11T13:20:27.881Z,101138.00
2023-02-11T13:23:05.476Z,101137.60
2023-02-11T13:25:50.316Z,101138.80
2023-02-11T13:28:40.367Z,101141.20
2023-02-11T13:31:16.444Z,101145.40
2023-02-11T13:33:50.244Z,101136.00
2023-02-11T13:36:28.674Z,101137.40
2023-02-11T13:39:08.166Z,101130.20
2023-02-11T13:41:45.429Z,101132.60
2023-02-11T13:44:31.427Z,101127.00
2023-02-11T13:47:09.006Z,101120.20
2023-02-11T13:49:52.171Z,101121.20
2023-02-11T13:52:31.461Z,101122.60
2023-02-11T13:55:16.229Z,101129.00
2023-02-11T13:58:25.372Z,101126.60
2023-02-11T14:00:58.706Z,101128.40
2023-02-11T14:03:55.668Z,101122.00
2023-02-11T14:06:50.125Z,101119.40
2023-02-11T14:09:45.001Z,101119.80
2023-02-11T14:12:37.253Z,101123.80
2023-02-11T14:15:39.373Z,101125.80
2023-02-11T14:18:39.820Z,101140.60
2023-02-11T14:21:22.215Z,101143.20
2023-02-11T14:24:16.026Z,101155.00
2023-02-11T14:26:53.660Z,101159.60
2023-02-11T14:29:36.148Z,101166.40
2023-02-11T14:32:21.811Z,101165.80
2023-02-11T14:35:04.855Z,101172.40
2023-02-11T14:37:50.631Z,101172.60
2023-02-11T14:40:33.443Z,101178.20
2023-02-11T14:43:17.449Z,101179.20
2023-02-11T14:45:55.635Z,101178.80
2023-02-11T14:48:36.363Z,101186.60
2023-02-11T14:51:14.798Z,101191.60
2023-02-11T14:53:51.915Z,101193.00
2023-02-11T14:56:28.134Z,101201.40
2023-02-11T14:59:02.804Z,101190.60
2023-02-11T15:01:42.148Z,101189.60
2023-02-11T15:04:29.279Z,101196.80
2023-02-11T15:07:07.784Z,101203.80
2023-02-11T15:09:45.242Z,101201.60
2023-02-11T15:12:27.563Z,101197.80
2023-02-11T15:15:03.649Z,101193.20
2023-02-11T15:17:37.587Z,101192.20
2023-02-11T15:20:28.743Z,101188.40
2023-02-11T15:23:05.389Z,101193.00
2023-02-11T15:25:46.510Z,101192.40
2023-02-11T15:28:25.381Z,101198.20
2023-02-11T15:31:15.199Z,101199.80
2023-02-11T15:33:48.574Z,101200.00
2023-02-11T15:36:24.097Z,101199.40
2023-02-11T15:39:32.166Z,101206.00
2023-02-11T15:42:24.194Z,101205.20
2023-02-11T15:45:26.231Z,101214.40
2023-02-11T15:48:06.443Z,101214.00
2023-02-11T15:50:42.387Z,101217.40
2023-02-11T15:53:27.893Z,101218.40
2023-02-11T15:56:09.431Z,101220.00
2023-02-11T15:58:45.185Z,101228.60
2023-02-11T16:01:18.743Z,101230.60
2023-02-11T16:03:54.052Z,101232.60
2023-02-11T16:06:36.959Z,101233.00
2023-02-11T16:09:27.485Z,101231.80
2023-02-11T16:12:03.869Z,101226.00
2023-02-11T16:14:39.490Z,101229.20
2023-02-11T16:17:23.788Z,101228.40
2023-02-11T16:19:57.460Z,101225.40
2023-02-11T16:22:38.251Z,101230.00
2023-02-11T16:25:22.206Z,101233.80
2023-02-11T16:27:56.681Z,101233.40
2023-02-11T16:30:37.879Z,101236.60
2023-02-11T16:33:12.316Z,101239.00
2023-02-11T16:35:47.839Z,101239.60
2023-02-11T16:38:21.578Z,101247.40
2023-02-11T16:40:54.674Z,101240.80
2023-02-11T16:43:27.783Z,101243.40
2023-02-11T16:46:01.348Z,101251.40
2023-02-11T16:48:35.246Z,101257.60
2023-02-11T16:51:11.651Z,101259.40
2023-02-11T16:53:44.698Z,101270.60
2023-02-11T16:56:20.947Z,101270.20
2023-02-11T16:58:54.070Z,101274.80
2023-02-11T17:01:27.353Z,101283.20
2023-02-11T17:04:00.788Z,101285.60
2023-02-11T17:06:34.552Z,101284.20
2023-02-11T17:09:08.832Z,101292.80
2023-02-11T17:11:41.861Z,101296.60
2023-02-11T17:14:15.468Z,101297.60
2023-02-11T17:16:49.319Z,101298.60
2023-02-11T17:19:23.356Z,101305.80
2023-02-11T17:21:57.231Z,101310.60
2023-02-11T17:24:30.385Z,101313.00
2023-02-11T17:27:03.639Z,101319.00
2023-02-11T17:29:36.869Z,101315.20
2023-02-11T17:32:10.163Z,101319.80
2023-02-11T17:34:43.459Z,101318.40
2023-02-11T17:37:16.595Z,101323.20
2023-02-11T17:39:50.416Z,101330.20
2023-02-11T17:42:23.750Z,101328.00
2023-02-11T17:44:56.825Z,101326.00
2023-02-11T17:47:30.840Z,101331.20
2023-02-11T17:50:04.419Z,101335.20
2023-02-11T17:52:38.073Z,101332.60
2023-02-11T17:55:12.200Z,101343.80
2023-02-11T17:57:45.328Z,101351.00
2023-02-11T18:00:21.318Z,101346.40
2023-02-11T18:02:57.143Z,101342.80
2023-02-11T18:05:34.884Z,101340.00
2023-02-11T18:08:10.615Z,101334.60
2023-02-11T18:10:46.320Z,101333.80
2023-02-11T18:13:19.485Z,101331.60
2023-02-11T18:15:53.409Z,101336.60
2023-02-11T18:18:26.612Z,101336.80
2023-02-11T18:21:04.312Z,101334.40
2023-02-11T18:23:37.727Z,101339.00
2023-02-11T18:26:14.891Z,101338.80
2023-02-11T18:28:48.464Z,101346.60
2023-02-11T18:31:23.043Z,101349.40
2023-02-11T18:33:56.409Z,101349.20
2023-02-11T18:36:29.571Z,101343.60
2023-02-11T18:39:02.712Z,101345.40
2023-02-11T18:41:35.946Z,101346.80
2023-02-11T18:44:09.400Z,101336.40
2023-02-11T18:46:42.597Z,101345.00
2023-02-11T18:49:15.698Z,101341.00
2023-02-11T18:51:49.163Z,101344.00
2023-02-11T18:54:22.523Z,101358.40
2023-02-11T18:56:55.560Z,101362.20
2023-02-11T18:59:28.679Z,101366.40
2023-02-11T19:02:01.926Z,101366.40
2023-02-11T19:04:37.455Z,101371.80
2023-02-11T19:07:10.682Z,101376.00
2023-02-11T19:09:43.840Z,101378.80
2023-02-11T19:12:16.821Z,101384.20
2023-02-11T19:14:50.115Z,101391.40
2023-02-11T19:17:23.814Z,101385.80
2023-02-11T19:19:57.486Z,101384.00
2023-02-11T19:22:30.551Z,101383.80
2023-02-11T19:25:03.702Z,101392.20
2023-02-11T19:27:36.945Z,101396.00
2023-02-11T19:30:12.492Z,101400.20
2023-02-11T19:32:45.561Z,101401.80
2023-02-11T19:35:18.646Z,101403.40
2023-02-11T19:38:04.953Z,101404.80
2023-02-11T19:40:38.009Z,101400.20
2023-02-11T19:43:11.088Z,101405.80
2023-02-11T19:45:44.160Z,101405.80
2023-02-11T19:48:17.784Z,101410.20
2023-02-11T19:50:50.939Z,101409.40
2023-02-11T19:53:24.920Z,101419.00
2023-02-11T19:56:01.751Z,101422.40
2023-02-11T19:58:34.925Z,101418.60
2023-02-11T20:01:14.002Z,101419.00
2023-02-11T20:03:49.470Z,101423.80
2023-02-11T20:06:25.175Z,101421.60
2023-02-11T20:09:01.221Z,101429.20
2023-02-11T20:11:36.162Z,101436.20
2023-02-11T20:14:10.726Z,101435.20
2023-02-11T20:16:49.243Z,101431.20
2023-02-11T20:19:24.958Z,101434.60
2023-02-11T20:21:59.059Z,101438.00
2023-02-11T20:24:32.247Z,101442.60
2023-02-11T20:27:08.554Z,101457.40
2023-02-11T20:29:42.140Z,101457.00
2023-02-11T20:32:15.780Z,101456.00
2023-02-11T20:34:49.018Z,101455.60
2023-02-11T20:37:22.320Z,101459.80
2023-02-11T20:39:55.500Z,101464.60
2023-02-11T20:42:28.798Z,101465.40
2023-02-11T20:45:02.500Z,101466.60
2023-02-11T20:47:35.770Z,101465.20
2023-02-11T20:50:10.716Z,101465.40
2023-02-11T20:52:43.818Z,101468.20
2023-02-11T20:55:17.114Z,101474.60
2023-02-11T20:57:50.398Z,101474.40
2023-02-11T21:00:24.856Z,101473.20
2023-02-11T21:02:58.122Z,101484.00
2023-02-11T21:05:32.124Z,101483.60
2023-02-11T21:08:05.703Z,101483.20
2023-02-11T21:10:38.765Z,101495.60
2023-02-11T21:13:11.837Z,101499.40
2023-02-11T21:15:45.103Z,101507.20
2023-02-11T21:18:18.276Z,101513.80
2023-02-11T21:20:51.421Z,101517.00
2023-02-11T21:23:25.232Z,101522.20
2023-02-11T21:25:59.753Z,101513.80
2023-02-11T21:28:33.282Z,101517.40
2023-02-11T21:31:07.272Z,101521.20
2023-02-11T21:33:40.384Z,101526.80
2023-02-11T21:36:15.275Z,101523.80
2023-02-11T21:38:48.901Z,101531.20
2023-02-11T21:41:23.360Z,101531.60
2023-02-11T21:43:59.517Z,101538.80
2023-02-11T21:46:33.727Z,101547.60
2023-02-11T21:49:06.913Z,101550.00
2023-02-11T21:51:40.676Z,101546.40
2023-02-11T21:54:15.288Z,101549.60
2023-02-11T21:56:51.798Z,101541.80
2023-02-11T21:59:25.060Z,101545.20
2023-02-11T22:01:58.963Z,101550.60
2023-02-11T22:04:33.496Z,101557.00
2023-02-11T22:07:06.666Z,101567.20
2023-02-11T22:09:41.297Z,101572.60
2023-02-11T22:12:14.602Z,101582.20
2023-02-11T22:14:48.042Z,101575.40
2023-02-11T22:17:21.286Z,101583.60
2023-02-11T22:19:55.650Z,101582.20
2023-02-11T22:22:29.620Z,101589.80
2023-02-11T22:25:03.486Z,101603.60
2023-02-11T22:27:36.828Z,101606.80
2023-02-11T22:30:12.772Z,101607.40
2023-02-11T22:32:46.846Z,101611.00
2023-02-11T22:35:20.261Z,101604.40
2023-02-11T22:37:53.659Z,101603.60
2023-02-11T22:40:26.852Z,101615.20
2023-02-11T22:43:00.014Z,101617.00
2023-02-11T22:45:34.621Z,101618.80
2023-02-11T22:48:08.382Z,101623.00
2023-02-11T22:50:41.500Z,101616.60
2023-02-11T22:53:14.714Z,101620.40
2023-02-11T22:55:47.952Z,101634.40
2023-02-11T22:58:21.130Z,101630.20
2023-02-11T23:00:54.290Z,101626.40
2023-02-11T23:03:28.374Z,101628.60
2023-02-11T23:06:03.021Z,101626.20
2023-02-11T23:08:36.809Z,101627.80
2023-02-11T23:11:12.886Z,101634.40
2023-02-11T23:13:47.970Z,101634.40
2023-02-11T23:16:24.443Z,101627.80
2023-02-11T23:18:59.925Z,101627.00
2023-02-11T23:21:36.591Z,101634.20
2023-02-11T23:24:14.530Z,101630.80
2023-02-11T23:26:48.016Z,101639.60
2023-02-11T23:29:21.146Z,101633.20
2023-02-11T23:31:56.973Z,101637.20
2023-02-11T23:34:31.852Z,101646.60
2023-02-11T23:37:05.551Z,101646.60
2023-02-11T23:39:39.124Z,101649.20
2023-02-11T23:42:12.278Z,101655.40
2023-02-11T23:44:45.354Z,101660.20
2023-02-11T23:47:18.469Z,101660.40
2023-02-11T23:49:51.579Z,101666.20
2023-02-11T23:52:24.801Z,101667.60
2023-02-11T23:54:57.860Z,101663.80
2023-02-11T23:57:32.800Z,101672.20
